createdAt,value
2019-03-03T00:01:01.920Z,1.58
2019-03-03T00:03:29.500Z,1.52
2019-03-03T00:05:56.941Z,1.52
2019-03-03T00:08:24.772Z,1.63
2019-03-03T00:10:52.349Z,1.60
2019-03-03T00:13:19.829Z,1.60
2019-03-03T00:15:47.293Z,1.58
2019-03-03T00:18:14.789Z,1.72
2019-03-03T00:20:42.224Z,1.66
2019-03-03T00:23:09.669Z,1.80
2019-03-03T00:25:37.344Z,1.89
2019-03-03T00:28:04.950Z,1.89
2019-03-03T00:30:32.540Z,1.82
2019-03-03T00:32:59.991Z,1.75
2019-03-03T00:35:27.498Z,1.80
2019-03-03T00:38:06.252Z,1.69
2019-03-03T00:41:02.297Z,1.86
2019-03-03T00:43:37.992Z,1.89
2019-03-03T00:46:23.594Z,2.05
2019-03-03T00:49:04.479Z,1.90
2019-03-03T00:51:54.355Z,1.93
2019-03-03T00:54:59.849Z,1.91
2019-03-03T00:57:49.567Z,1.93
2019-03-03T01:00:40.094Z,1.85
2019-03-03T01:03:13.415Z,1.69
2019-03-03T01:06:12.560Z,1.91
2019-03-03T01:09:08.579Z,1.77
2019-03-03T01:11:51.277Z,1.85
2019-03-03T01:14:29.597Z,1.95
2019-03-03T01:17:19.287Z,2.03
2019-03-03T01:20:05.856Z,2.04
2019-03-03T01:22:55.674Z,1.91
2019-03-03T01:25:23.201Z,1.83
2019-03-03T01:27:50.618Z,1.68
2019-03-03T01:30:18.192Z,1.77
2019-03-03T01:32:45.658Z,1.81
2019-03-03T01:35:13.118Z,2.00
2019-03-03T01:37:40.736Z,1.79
2019-03-03T01:40:08.537Z,1.66
2019-03-03T01:42:36.068Z,1.94
2019-03-03T01:45:04.336Z,1.77
2019-03-03T01:47:31.863Z,1.72
2019-03-03T01:49:59.318Z,1.75
2019-03-03T01:52:26.912Z,1.66
2019-03-03T01:54:54.361Z,1.63
2019-03-03T01:57:21.807Z,1.59
2019-03-03T01:59:49.295Z,1.59
2019-03-03T02:02:16.848Z,1.70
2019-03-03T02:04:44.367Z,1.88
2019-03-03T02:07:11.937Z,1.77
2019-03-03T02:09:39.419Z,1.74
2019-03-03T02:12:06.912Z,1.68
2019-03-03T02:14:34.406Z,1.72
2019-03-03T02:17:02.482Z,1.80
2019-03-03T02:19:30.077Z,1.74
2019-03-03T02:21:57.604Z,1.82
2019-03-03T02:24:25.087Z,1.91
2019-03-03T02:26:52.942Z,1.77
2019-03-03T02:29:20.437Z,1.78
2019-03-03T02:31:47.949Z,1.71
2019-03-03T02:34:15.419Z,1.91
2019-03-03T02:36:43.049Z,1.73
2019-03-03T02:39:15.659Z,1.69
2019-03-03T02:41:43.099Z,1.62
2019-03-03T02:44:10.599Z,1.81
2019-03-03T02:46:38.055Z,1.75
2019-03-03T02:49:05.496Z,1.73
2019-03-03T02:51:32.968Z,1.71
2019-03-03T02:54:00.465Z,1.72
2019-03-03T02:56:27.942Z,1.76
2019-03-03T02:58:55.385Z,1.68
2019-03-03T03:01:27.075Z,1.74
2019-03-03T03:03:54.549Z,1.82
2019-03-03T03:06:41.513Z,1.84
2019-03-03T03:09:12.209Z,1.91
2019-03-03T03:11:55.755Z,2.00
2019-03-03T03:14:42.012Z,2.02
2019-03-03T03:17:38.216Z,2.04
2019-03-03T03:20:24.799Z,1.89
2019-03-03T03:23:06.461Z,1.82
2019-03-03T03:25:49.920Z,1.89
2019-03-03T03:28:26.987Z,1.98
2019-03-03T03:31:22.989Z,1.79
2019-03-03T03:33:58.458Z,1.74
2019-03-03T03:36:39.522Z,1.73
2019-03-03T03:39:38.579Z,1.66
2019-03-03T03:42:18.037Z,1.68
2019-03-03T03:45:13.925Z,1.78
2019-03-03T03:47:59.508Z,1.82
2019-03-03T03:50:41.346Z,1.75
2019-03-03T03:53:27.200Z,1.94
2019-03-03T03:56:16.809Z,1.89
2019-03-03T03:59:00.538Z,1.88
2019-03-03T04:02:05.390Z,1.75
2019-03-03T04:04:39.369Z,1.70
2019-03-03T04:07:14.560Z,1.64
2019-03-03T04:09:46.499Z,1.77
2019-03-03T04:12:36.286Z,1.67
2019-03-03T04:15:10.080Z,1.66
2019-03-03T04:17:51.760Z,1.68
2019-03-03T04:20:54.007Z,1.76
2019-03-03T04:23:48.018Z,1.67
2019-03-03T04:26:33.762Z,1.77
2019-03-03T04:29:19.602Z,1.62
2019-03-03T04:32:01.147Z,1.82
2019-03-03T04:34:45.318Z,1.85
2019-03-03T04:37:21.987Z,1.86
2019-03-03T04:40:12.017Z,1.85
2019-03-03T04:42:47.097Z,1.89
2019-03-03T04:45:22.388Z,1.78
2019-03-03T04:48:08.243Z,1.77
2019-03-03T04:50:55.284Z,1.72
2019-03-03T04:53:45.231Z,1.65
2019-03-03T04:56:30.956Z,1.56
2019-03-03T04:59:23.749Z,1.42
2019-03-03T05:02:07.463Z,1.40
2019-03-03T05:04:56.481Z,1.53
2019-03-03T05:07:52.765Z,1.44
2019-03-03T05:10:30.909Z,1.33
2019-03-03T05:13:26.888Z,1.47
2019-03-03T05:16:12.723Z,1.31
2019-03-03T05:18:48.701Z,1.24
2019-03-03T05:21:16.157Z,1.27
2019-03-03T05:23:43.639Z,1.16
2019-03-03T05:26:11.116Z,1.20
2019-03-03T05:28:38.596Z,0.87
2019-03-03T05:31:06.071Z,0.97
2019-03-03T05:33:33.532Z,1.23
2019-03-03T05:36:00.980Z,1.17
2019-03-03T05:38:28.432Z,1.23
2019-03-03T05:40:55.912Z,1.12
2019-03-03T05:43:23.422Z,0.94
2019-03-03T05:45:50.856Z,0.94
2019-03-03T05:48:18.316Z,1.16
2019-03-03T05:50:46.016Z,0.90
2019-03-03T05:53:13.447Z,0.96
2019-03-03T05:55:40.912Z,1.25
2019-03-03T05:58:08.356Z,0.87
2019-03-03T06:00:35.814Z,0.80
2019-03-03T06:03:03.369Z,0.73
2019-03-03T06:05:30.821Z,0.83
2019-03-03T06:07:58.257Z,0.78
2019-03-03T06:10:25.736Z,0.74
2019-03-03T06:12:53.240Z,0.89
2019-03-03T06:15:20.712Z,0.69
2019-03-03T06:17:48.156Z,1.05
2019-03-03T06:20:15.622Z,0.69
2019-03-03T06:22:43.051Z,1.09
2019-03-03T06:25:10.619Z,1.06
2019-03-03T06:27:38.137Z,0.98
2019-03-03T06:30:07.438Z,0.97
2019-03-03T06:32:34.888Z,1.05
2019-03-03T06:35:02.471Z,0.91
2019-03-03T06:37:29.890Z,1.00
2019-03-03T06:39:57.400Z,0.98
2019-03-03T06:42:24.897Z,1.09
2019-03-03T06:44:52.337Z,0.68
2019-03-03T06:47:19.796Z,0.82
2019-03-03T06:49:47.257Z,0.91
2019-03-03T06:52:14.711Z,0.95
2019-03-03T06:54:42.197Z,0.79
2019-03-03T06:57:09.718Z,0.94
2019-03-03T06:59:37.164Z,0.93
2019-03-03T07:02:04.613Z,0.94
2019-03-03T07:04:32.056Z,0.93
2019-03-03T07:06:59.512Z,1.05
2019-03-03T07:09:26.977Z,1.09
2019-03-03T07:11:54.437Z,0.98
2019-03-03T07:14:21.911Z,1.04
2019-03-03T07:16:49.379Z,1.04
2019-03-03T07:19:16.829Z,1.39
2019-03-03T07:21:44.323Z,1.21
2019-03-03T07:24:11.791Z,1.23
2019-03-03T07:26:39.276Z,1.07
2019-03-03T07:29:06.763Z,1.28
2019-03-03T07:31:34.255Z,1.32
2019-03-03T07:34:02.897Z,1.52
2019-03-03T07:36:30.320Z,1.55
2019-03-03T07:38:57.863Z,1.38
2019-03-03T07:41:25.338Z,1.38
2019-03-03T07:43:52.804Z,1.51
2019-03-03T07:46:20.266Z,1.43
2019-03-03T07:48:47.777Z,1.71
2019-03-03T07:51:15.277Z,1.67
2019-03-03T07:53:42.740Z,1.71
2019-03-03T07:56:10.203Z,1.72
2019-03-03T07:58:37.687Z,1.75
2019-03-03T08:01:05.121Z,2.03
2019-03-03T08:03:32.723Z,1.77
2019-03-03T08:06:00.317Z,1.91
2019-03-03T08:08:27.818Z,1.75
2019-03-03T08:10:55.253Z,1.96
2019-03-03T08:13:22.739Z,1.89
2019-03-03T08:15:50.221Z,1.95
2019-03-03T08:18:17.728Z,1.77
2019-03-03T08:20:45.358Z,1.69
2019-03-03T08:23:12.852Z,1.73
2019-03-03T08:25:40.337Z,1.92
2019-03-03T08:28:07.861Z,1.76
2019-03-03T08:30:35.439Z,1.76
2019-03-03T08:33:03.018Z,1.89
2019-03-03T08:35:30.525Z,1.78
2019-03-03T08:37:59.880Z,1.75
2019-03-03T08:40:27.359Z,1.93
2019-03-03T08:43:23.450Z,1.90
2019-03-03T08:46:19.746Z,1.93
2019-03-03T08:48:57.658Z,1.97
2019-03-03T08:51:45.683Z,2.06
2019-03-03T08:54:31.017Z,2.11
2019-03-03T08:57:15.812Z,2.52
2019-03-03T09:00:20.849Z,2.90
2019-03-03T09:03:17.202Z,3.13
2019-03-03T09:06:07.151Z,4.14
2019-03-03T09:08:52.266Z,4.59
2019-03-03T09:11:31.074Z,3.94
2019-03-03T09:14:17.487Z,4.29
2019-03-03T09:17:14.947Z,4.57
2019-03-03T09:20:04.890Z,4.87
2019-03-03T09:22:51.885Z,4.95
2019-03-03T09:25:48.061Z,4.94
2019-03-03T09:28:35.090Z,4.89
2019-03-03T09:31:20.694Z,4.68
2019-03-03T09:33:56.053Z,4.85
2019-03-03T09:36:37.298Z,4.71
2019-03-03T09:39:28.766Z,4.93
2019-03-03T09:42:05.396Z,5.40
2019-03-03T09:45:07.730Z,5.55
2019-03-03T09:47:44.777Z,5.42
2019-03-03T09:50:23.263Z,5.88
2019-03-03T09:53:08.787Z,6.20
2019-03-03T09:55:53.518Z,6.10
2019-03-03T09:58:40.596Z,6.25
2019-03-03T10:01:19.572Z,6.42
2019-03-03T10:04:12.632Z,6.02
2019-03-03T10:06:57.866Z,6.35
2019-03-03T10:09:47.932Z,6.15
2019-03-03T10:12:37.659Z,6.54
2019-03-03T10:15:25.959Z,6.87
2019-03-03T10:18:11.748Z,7.08
2019-03-03T10:21:11.329Z,7.06
2019-03-03T10:24:10.334Z,7.06
2019-03-03T10:26:48.437Z,6.96
2019-03-03T10:29:53.811Z,6.97
2019-03-03T10:32:39.369Z,7.16
2019-03-03T10:35:22.162Z,7.21
2019-03-03T10:38:08.209Z,7.14
2019-03-03T10:40:54.402Z,7.26
2019-03-03T10:43:47.645Z,7.13
2019-03-03T10:46:34.867Z,7.18
2019-03-03T10:49:09.533Z,8.20
2019-03-03T10:51:55.863Z,8.11
2019-03-03T10:54:46.027Z,8.51
2019-03-03T10:57:42.182Z,8.84
2019-03-03T11:00:32.257Z,8.85
2019-03-03T11:03:17.927Z,8.58
2019-03-03T11:06:01.939Z,8.61
2019-03-03T11:08:58.217Z,8.55
2019-03-03T11:11:44.411Z,8.68
2019-03-03T11:14:22.480Z,8.48
2019-03-03T11:17:12.778Z,9.03
2019-03-03T11:19:54.888Z,9.18
2019-03-03T11:22:48.388Z,9.43
2019-03-03T11:25:34.145Z,9.43
2019-03-03T11:28:29.323Z,9.45
2019-03-03T11:31:16.759Z,9.67
2019-03-03T11:33:55.974Z,9.16
2019-03-03T11:36:30.197Z,9.62
2019-03-03T11:39:26.072Z,9.53
2019-03-03T11:42:19.815Z,9.58
2019-03-03T11:44:55.509Z,10.09
2019-03-03T11:47:42.910Z,9.75
2019-03-03T11:50:28.893Z,10.01
2019-03-03T11:53:22.339Z,10.04
2019-03-03T11:56:15.865Z,10.21
2019-03-03T11:59:01.571Z,10.40
2019-03-03T12:02:01.132Z,10.56
2019-03-03T12:04:47.255Z,10.61
2019-03-03T12:07:40.162Z,10.67
2019-03-03T12:10:27.851Z,10.91
2019-03-03T12:13:21.319Z,11.04
2019-03-03T12:16:07.448Z,10.95
2019-03-03T12:18:53.614Z,10.88
2019-03-03T12:21:39.894Z,11.25
2019-03-03T12:24:14.645Z,10.90
2019-03-03T12:26:54.872Z,11.00
2019-03-03T12:29:36.149Z,11.16
2019-03-03T12:32:21.931Z,10.97
2019-03-03T12:35:16.506Z,10.90
2019-03-03T12:38:12.437Z,10.97
2019-03-03T12:41:11.611Z,11.11
2019-03-03T12:44:11.063Z,11.04
2019-03-03T12:47:01.255Z,10.93
2019-03-03T12:49:45.435Z,11.24
2019-03-03T12:52:20.979Z,11.41
2019-03-03T12:55:07.221Z,11.28
2019-03-03T12:57:48.357Z,11.59
2019-03-03T13:00:38.357Z,11.43
2019-03-03T13:03:34.755Z,11.54
2019-03-03T13:06:26.431Z,11.69
2019-03-03T13:09:19.684Z,11.94
2019-03-03T13:11:57.027Z,11.59
2019-03-03T13:14:33.078Z,11.45
2019-03-03T13:17:17.862Z,11.66
2019-03-03T13:20:03.759Z,11.83
2019-03-03T13:22:42.666Z,11.57
2019-03-03T13:25:22.375Z,11.18
2019-03-03T13:28:09.830Z,11.93
2019-03-03T13:30:55.821Z,12.18
2019-03-03T13:33:43.275Z,12.26
2019-03-03T13:36:25.597Z,12.68
2019-03-03T13:39:06.952Z,12.93
2019-03-03T13:41:42.044Z,12.77
2019-03-03T13:44:10.011Z,12.45
2019-03-03T13:46:38.454Z,12.32
2019-03-03T13:49:06.443Z,12.78
2019-03-03T13:51:34.574Z,11.85
2019-03-03T13:54:02.620Z,12.04
2019-03-03T13:56:31.071Z,11.98
2019-03-03T13:58:59.066Z,12.23
2019-03-03T14:01:27.127Z,12.01
2019-03-03T14:03:55.189Z,11.43
2019-03-03T14:06:23.258Z,11.95
2019-03-03T14:08:51.498Z,12.78
2019-03-03T14:11:27.222Z,12.40
2019-03-03T14:13:55.258Z,12.58
2019-03-03T14:16:23.181Z,12.02
2019-03-03T14:18:51.220Z,12.25
2019-03-03T14:21:19.314Z,11.94
2019-03-03T14:23:47.326Z,11.99
2019-03-03T14:26:15.571Z,11.96
2019-03-03T14:28:43.518Z,11.77
2019-03-03T14:31:11.568Z,11.48
2019-03-03T14:33:39.564Z,11.61
2019-03-03T14:36:07.596Z,11.62
2019-03-03T14:38:35.988Z,10.80
2019-03-03T14:41:04.007Z,10.37
2019-03-03T14:43:32.015Z,10.50
2019-03-03T14:46:00.007Z,10.91
2019-03-03T14:48:28.050Z,11.06
2019-03-03T14:50:56.013Z,10.97
2019-03-03T14:53:24.181Z,11.05
2019-03-03T14:55:52.202Z,10.95
2019-03-03T14:58:21.936Z,11.00
2019-03-03T15:00:49.965Z,11.17
2019-03-03T15:03:17.980Z,11.52
2019-03-03T15:05:46.117Z,11.03
2019-03-03T15:08:14.241Z,10.80
2019-03-03T15:10:42.251Z,11.12
2019-03-03T15:13:10.304Z,11.18
2019-03-03T15:15:38.497Z,11.05
2019-03-03T15:18:06.834Z,10.46
2019-03-03T15:20:34.949Z,9.93
2019-03-03T15:23:02.992Z,9.77
2019-03-03T15:25:31.150Z,9.46
2019-03-03T15:27:59.174Z,9.55
2019-03-03T15:30:27.256Z,9.47
2019-03-03T15:32:55.282Z,9.18
2019-03-03T15:35:24.333Z,8.99
2019-03-03T15:37:52.346Z,9.50
2019-03-03T15:40:20.462Z,9.25
2019-03-03T15:42:48.683Z,9.20
2019-03-03T15:45:18.793Z,9.10
2019-03-03T15:47:46.991Z,8.91
2019-03-03T15:50:16.343Z,8.71
2019-03-03T15:52:44.426Z,8.88
2019-03-03T15:55:13.170Z,8.79
2019-03-03T15:57:41.803Z,9.81
2019-03-03T16:00:16.520Z,9.19
2019-03-03T16:02:44.787Z,9.45
2019-03-03T16:05:12.982Z,8.98
2019-03-03T16:07:41.285Z,8.47
2019-03-03T16:10:10.447Z,7.97
2019-03-03T16:12:38.563Z,8.14
2019-03-03T16:15:08.089Z,8.67
2019-03-03T16:17:36.231Z,8.05
2019-03-03T16:20:04.948Z,7.83
2019-03-03T16:22:35.390Z,8.44
2019-03-03T16:25:03.659Z,8.12
2019-03-03T16:27:32.415Z,8.09
2019-03-03T16:30:00.803Z,8.17
2019-03-03T16:32:28.941Z,7.82
2019-03-03T16:34:57.905Z,7.44
2019-03-03T16:37:26.380Z,7.72
2019-03-03T16:39:54.522Z,7.43
2019-03-03T16:42:23.838Z,7.24
2019-03-03T16:44:52.498Z,7.62
2019-03-03T16:47:20.951Z,8.71
2019-03-03T16:49:49.046Z,8.51
2019-03-03T16:52:17.293Z,8.44
2019-03-03T16:54:45.491Z,8.04
2019-03-03T16:57:13.766Z,7.43
2019-03-03T16:59:41.818Z,6.90
2019-03-03T17:02:09.923Z,6.60
2019-03-03T17:04:38.042Z,6.48
2019-03-03T17:07:06.231Z,6.94
2019-03-03T17:09:34.434Z,7.24
2019-03-03T17:12:02.533Z,7.09
2019-03-03T17:14:30.774Z,6.64
2019-03-03T17:17:00.413Z,6.22
2019-03-03T17:19:28.563Z,6.70
2019-03-03T17:21:56.972Z,7.06
2019-03-03T17:24:26.441Z,6.61
2019-03-03T17:26:54.606Z,6.35
2019-03-03T17:29:22.853Z,6.62
2019-03-03T17:31:51.095Z,6.91
2019-03-03T17:34:20.179Z,6.90
2019-03-03T17:36:50.221Z,6.35
2019-03-03T17:39:18.337Z,6.07
2019-03-03T17:41:46.491Z,5.83
2019-03-03T17:44:14.562Z,6.19
2019-03-03T17:46:42.665Z,6.15
2019-03-03T17:49:10.746Z,6.35
2019-03-03T17:51:38.806Z,6.83
2019-03-03T17:54:06.855Z,6.29
2019-03-03T17:56:35.264Z,5.94
2019-03-03T17:59:04.790Z,5.74
2019-03-03T18:01:33.601Z,5.54
2019-03-03T18:04:01.892Z,5.68
2019-03-03T18:06:38.559Z,5.73
2019-03-03T18:09:00.612Z,5.79
2019-03-03T18:11:28.769Z,5.81
2019-03-03T18:13:58.356Z,5.70
2019-03-03T18:16:26.418Z,5.54
2019-03-03T18:18:54.547Z,5.95
2019-03-03T18:21:23.898Z,5.69
2019-03-03T18:23:52.036Z,5.58
2019-03-03T18:26:20.606Z,5.73
2019-03-03T18:28:48.811Z,5.24
2019-03-03T18:31:20.213Z,5.23
2019-03-03T18:33:49.958Z,5.31
2019-03-03T18:36:18.234Z,6.36
2019-03-03T18:38:46.306Z,5.94
2019-03-03T18:41:14.444Z,6.28
2019-03-03T18:43:42.546Z,6.15
2019-03-03T18:46:11.067Z,5.96
2019-03-03T18:48:39.243Z,6.57
2019-03-03T18:51:08.612Z,6.57
2019-03-03T18:53:39.337Z,6.98
2019-03-03T18:56:09.647Z,5.97
2019-03-03T18:58:37.771Z,5.83
2019-03-03T19:01:06.117Z,6.11
2019-03-03T19:03:34.578Z,5.98
2019-03-03T19:06:03.431Z,6.09
2019-03-03T19:08:31.529Z,6.01
2019-03-03T19:11:00.398Z,5.98
2019-03-03T19:13:28.652Z,6.15
2019-03-03T19:15:57.712Z,5.74
2019-03-03T19:18:27.059Z,5.48
2019-03-03T19:20:55.269Z,5.13
2019-03-03T19:23:23.394Z,5.22
2019-03-03T19:25:51.608Z,5.32
2019-03-03T19:28:19.781Z,5.51
2019-03-03T19:30:47.884Z,5.69
2019-03-03T19:33:25.316Z,5.41
2019-03-03T19:35:55.693Z,5.32
2019-03-03T19:38:23.813Z,5.50
2019-03-03T19:40:51.933Z,5.39
2019-03-03T19:43:21.349Z,5.12
2019-03-03T19:45:49.651Z,4.94
2019-03-03T19:48:17.833Z,5.08
2019-03-03T19:50:47.317Z,4.88
2019-03-03T19:53:15.414Z,4.96
2019-03-03T19:55:43.991Z,4.77
2019-03-03T19:58:12.172Z,5.04
2019-03-03T20:00:42.464Z,4.54
2019-03-03T20:03:10.618Z,4.29
2019-03-03T20:05:40.085Z,4.69
2019-03-03T20:08:09.449Z,4.56
2019-03-03T20:10:39.546Z,4.38
2019-03-03T20:13:07.620Z,4.53
2019-03-03T20:15:37.036Z,4.41
2019-03-03T20:18:25.719Z,4.33
2019-03-03T20:20:54.054Z,4.16
2019-03-03T20:23:22.156Z,4.40
2019-03-03T20:25:53.107Z,4.33
2019-03-03T20:28:21.786Z,3.98
2019-03-03T20:30:50.757Z,3.99
2019-03-03T20:33:19.046Z,4.28
2019-03-03T20:35:47.164Z,3.97
2019-03-03T20:38:15.279Z,4.03
2019-03-03T20:40:43.406Z,3.93
2019-03-03T20:43:11.471Z,3.96
2019-03-03T20:45:40.766Z,3.97
2019-03-03T20:48:08.820Z,3.83
2019-03-03T20:50:36.930Z,3.85
2019-03-03T20:53:05.133Z,3.83
2019-03-03T20:55:33.416Z,3.79
2019-03-03T20:58:07.962Z,3.68
2019-03-03T21:00:36.783Z,3.84
2019-03-03T21:03:04.804Z,3.79
2019-03-03T21:05:33.223Z,3.91
2019-03-03T21:08:01.265Z,4.07
2019-03-03T21:10:29.660Z,3.98
2019-03-03T21:12:58.807Z,3.78
2019-03-03T21:15:26.864Z,3.79
2019-03-03T21:17:55.304Z,3.71
2019-03-03T21:20:23.637Z,3.57
2019-03-03T21:22:51.697Z,3.59
2019-03-03T21:25:20.782Z,3.50
2019-03-03T21:27:49.112Z,3.43
2019-03-03T21:30:19.060Z,3.56
2019-03-03T21:32:47.303Z,3.68
2019-03-03T21:35:15.500Z,3.63
2019-03-03T21:37:43.469Z,3.65
2019-03-03T21:40:12.657Z,3.73
2019-03-03T21:42:40.613Z,3.43
2019-03-03T21:45:09.860Z,3.49
2019-03-03T21:47:37.972Z,3.48
2019-03-03T21:50:07.735Z,3.36
2019-03-03T21:52:35.730Z,3.44
2019-03-03T21:55:04.760Z,3.50
2019-03-03T21:57:32.729Z,3.48
2019-03-03T22:00:00.410Z,3.38
2019-03-03T22:02:28.312Z,3.33
2019-03-03T22:04:55.958Z,2.90
2019-03-03T22:07:26.075Z,2.94
2019-03-03T22:09:53.698Z,3.20
2019-03-03T22:12:21.265Z,3.23
2019-03-03T22:14:48.810Z,3.08
2019-03-03T22:17:16.279Z,3.05
2019-03-03T22:19:43.749Z,3.32
2019-03-03T22:22:11.239Z,3.28
2019-03-03T22:24:38.685Z,3.38
2019-03-03T22:27:06.143Z,3.28
2019-03-03T22:29:33.702Z,3.08
2019-03-03T22:32:01.146Z,3.27
2019-03-03T22:34:28.618Z,3.14
2019-03-03T22:36:56.149Z,3.23
2019-03-03T22:39:23.668Z,3.23
2019-03-03T22:41:51.117Z,3.05
2019-03-03T22:44:18.594Z,3.24
2019-03-03T22:46:46.024Z,3.32
2019-03-03T22:49:13.527Z,3.23
2019-03-03T22:51:41.018Z,3.42
2019-03-03T22:54:08.460Z,3.41
2019-03-03T22:56:35.960Z,3.32
2019-03-03T22:59:03.642Z,3.41
2019-03-03T23:01:37.819Z,3.31
2019-03-03T23:04:11.613Z,3.23
2019-03-03T23:06:55.900Z,3.19
2019-03-03T23:10:26.558Z,3.32
2019-03-03T23:13:31.038Z,3.32
2019-03-03T23:16:28.642Z,3.25
2019-03-03T23:19:26.446Z,3.31
2019-03-03T23:22:25.968Z,3.22
2019-03-03T23:25:05.846Z,3.27
2019-03-03T23:27:33.342Z,3.03
2019-03-03T23:30:00.817Z,3.17
2019-03-03T23:32:28.262Z,2.92
2019-03-03T23:34:55.743Z,3.06
2019-03-03T23:37:23.244Z,3.02
2019-03-03T23:39:50.756Z,3.21
2019-03-03T23:42:18.339Z,3.28
2019-03-03T23:44:45.792Z,3.12
2019-03-03T23:47:13.258Z,3.05
2019-03-03T23:49:40.742Z,2.91
2019-03-03T23:52:08.246Z,2.92
2019-03-03T23:54:35.707Z,3.14
2019-03-03T23:57:03.208Z,3.02
2019-03-03T23:59:30.858Z,3.18
